KALX/ALX METAR and TAF weather

Enter ICAO airport designator
Station Type Date Time Source
KALX METAR 2019/06/26 22:17 UTC NOAA

KALX 262217Z AUTO 25004KT 10SM TS CLR 29/22 A3015 RMK AO2 LTG DSNT N THRU E


Station Type Date Time Source
KALX Decoded METAR 2019/06/26 22:17 UTC NOAA

Alexander City, Thomas C Russell Field Airport, AL, United States (KALX) 32-54-53N 085-57-46W
Jun 26, 2019 - 06:17 PM EDT / 2019.06.26 2217 UTC
Wind: from the WSW (250 degrees) at 5 MPH (4 KT):0
Visibility: 10 mile(s):0
Sky conditions: clear
Weather: thunder; Lightning observed
Temperature: 84 F (29 C)
Dew Point: 71 F (22 C)
Relative Humidity: 65%
Pressure (altimeter): 30.15 in. Hg (1020 hPa)
ob: KALX 262217Z AUTO 25004KT 10SM TS CLR 29/22 A3015 RMK AO2 LTG DSNT N THRU E
cycle: 22

Station Type Date Time Source
KALX TAF UTC NOAA

Error!

Example: see airport list